This is the latest recevied weather packets stored in our database for station/object KB3KAV. If no packets are shown the sender has not sent any weather packets the latest 10 day(s).
| Time | Temp. | Humidity | Pressure | Rain* | Wind** | Luminosity | Snow |
|---|---|---|---|---|---|---|---|
| 1787662559 | 15.56° C | 92% | 1046.4 hPa | 0 mm | - | 155 W/m² | - |
| 1787661956 | 15° C | 95% | 1046.3 hPa | 0 mm | - | 124 W/m² | - |
| 1787661354 | 14.44° C | 95% | 1046.6 hPa | 0 mm | - | 121 W/m² | - |
| 1787660749 | 13.89° C | 95% | 1046.5 hPa | 0 mm | - | 118 W/m² | - |
| 1787660149 | 13.33° C | 95% | 1046.3 hPa | 0 mm | - | 90 W/m² | - |
| 1787659547 | 13.33° C | 95% | 1046.3 hPa | 0 mm | - | 77 W/m² | - |
| 1787658943 | 12.78° C | 95% | 1046.5 hPa | 0 mm | - | 71 W/m² | - |
| 1787658338 | 12.22° C | 95% | 1046.5 hPa | 0 mm | - | 57 W/m² | - |
| 1787657736 | 12.22° C | 95% | 1046.5 hPa | 0 mm | - | 47 W/m² | - |
| 1787657131 | 11.67° C | 95% | 1046.4 hPa | 0 mm | - | 35 W/m² | - |
| 1787656528 | 11.11° C | 95% | 1046.7 hPa | 0 mm | - | 30 W/m² | - |
| 1787655925 | 11.11° C | 95% | 1046.3 hPa | 0 mm | - | 25 W/m² | - |
| 1787655325 | 11.11° C | 95% | 1046.4 hPa | 0 mm | - | 14 W/m² | - |
| 1787654721 | 11.11° C | 95% | 1046.3 hPa | 0 mm | - | 10 W/m² | - |
| 1787654118 | 11.11° C | 95% | 1046 hPa | 0 mm | - | 5 W/m² | - |
| 1787653513 | 11.11° C | 95% | 1046 hPa | 0 mm | - | 2 W/m² | - |
| 1787652909 | 11.11° C | 95% | 1045.9 hPa | 0 mm | - | 0 W/m² | - |
| 1787652309 | 11.11° C | 95% | 1045.9 hPa | 0 mm | - | 0 W/m² | - |
| 1787651708 | 11.11° C | 95% | 1045.9 hPa | 0 mm | - | 0 W/m² | - |
| 1787651105 | 11.67° C | 95% | 1045.8 hPa | 0 mm | - | 0 W/m² | - |
| 1787650502 | 11.67° C | 95% | 1045.7 hPa | 0 mm | - | 0 W/m² | - |
| 1787649898 | 11.67° C | 95% | 1045.7 hPa | 0 mm | - | 0 W/m² | - |
| 1787649294 | 11.67° C | 95% | 1045.5 hPa | 0 mm | - | 0 W/m² | - |
| 1787648695 | 11.67° C | 95% | 1045.3 hPa | 0 mm | - | 0 W/m² | - |
| 1787648093 | 11.67° C | 95% | 1045.4 hPa | 0 mm | - | 0 W/m² | - |
* Rain latest hour (hover to see other rain measurements)
** Current wind speed in m/s (hover to see current wind gust speed)